sensor_id;sensor_type;location;lat;lon;timestamp;P1;durP1;ratioP1;P2;durP2;ratioP2
4202;SDS011;2115;51.038;7.006;2022-11-15T00:01:25;11.37;;;6.50;;
4202;SDS011;2115;51.038;7.006;2022-11-15T00:03:51;16.87;;;8.20;;
4202;SDS011;2115;51.038;7.006;2022-11-15T00:06:16;15.23;;;7.00;;
4202;SDS011;2115;51.038;7.006;2022-11-15T00:08:41;15.13;;;8.00;;
4202;SDS011;2115;51.038;7.006;2022-11-15T00:11:08;19.47;;;8.37;;
4202;SDS011;2115;51.038;7.006;2022-11-15T00:13:35;12.03;;;7.23;;
4202;SDS011;2115;51.038;7.006;2022-11-15T00:16:00;16.70;;;7.33;;
4202;SDS011;2115;51.038;7.006;2022-11-15T00:18:27;21.83;;;8.30;;
4202;SDS011;2115;51.038;7.006;2022-11-15T00:20:52;14.63;;;7.80;;
4202;SDS011;2115;51.038;7.006;2022-11-15T00:23:18;26.00;;;8.60;;
4202;SDS011;2115;51.038;7.006;2022-11-15T00:25:43;24.73;;;7.70;;
4202;SDS011;2115;51.038;7.006;2022-11-15T00:28:08;17.70;;;6.67;;
4202;SDS011;2115;51.038;7.006;2022-11-15T00:30:34;16.43;;;6.80;;
4202;SDS011;2115;51.038;7.006;2022-11-15T00:33:03;16.43;;;7.20;;
4202;SDS011;2115;51.038;7.006;2022-11-15T00:35:30;25.80;;;7.50;;
4202;SDS011;2115;51.038;7.006;2022-11-15T00:37:57;13.83;;;7.70;;
4202;SDS011;2115;51.038;7.006;2022-11-15T00:40:22;17.57;;;8.07;;
4202;SDS011;2115;51.038;7.006;2022-11-15T00:42:48;11.57;;;6.60;;
4202;SDS011;2115;51.038;7.006;2022-11-15T00:45:13;18.80;;;7.87;;
4202;SDS011;2115;51.038;7.006;2022-11-15T00:47:38;14.00;;;7.37;;
4202;SDS011;2115;51.038;7.006;2022-11-15T00:50:04;11.67;;;6.10;;
4202;SDS011;2115;51.038;7.006;2022-11-15T00:52:29;18.17;;;7.40;;
4202;SDS011;2115;51.038;7.006;2022-11-15T00:54:55;17.60;;;6.90;;
4202;SDS011;2115;51.038;7.006;2022-11-15T00:57:20;11.77;;;7.00;;
4202;SDS011;2115;51.038;7.006;2022-11-15T00:59:46;17.63;;;7.80;;
4202;SDS011;2115;51.038;7.006;2022-11-15T01:02:11;16.23;;;7.33;;
4202;SDS011;2115;51.038;7.006;2022-11-15T01:04:37;16.87;;;8.70;;
4202;SDS011;2115;51.038;7.006;2022-11-15T01:07:02;18.60;;;8.23;;
4202;SDS011;2115;51.038;7.006;2022-11-15T01:09:28;17.40;;;7.80;;
4202;SDS011;2115;51.038;7.006;2022-11-15T01:11:53;16.30;;;7.17;;
4202;SDS011;2115;51.038;7.006;2022-11-15T01:14:18;18.07;;;8.00;;
4202;SDS011;2115;51.038;7.006;2022-11-15T01:16:44;23.83;;;8.27;;
4202;SDS011;2115;51.038;7.006;2022-11-15T01:19:09;12.73;;;6.83;;
4202;SDS011;2115;51.038;7.006;2022-11-15T01:21:34;23.40;;;7.60;;
4202;SDS011;2115;51.038;7.006;2022-11-15T01:24:00;16.00;;;7.50;;
4202;SDS011;2115;51.038;7.006;2022-11-15T01:26:25;15.03;;;7.07;;
4202;SDS011;2115;51.038;7.006;2022-11-15T01:28:51;22.43;;;8.33;;
4202;SDS011;2115;51.038;7.006;2022-11-15T01:31:18;14.83;;;6.37;;
4202;SDS011;2115;51.038;7.006;2022-11-15T01:33:45;22.00;;;7.70;;
4202;SDS011;2115;51.038;7.006;2022-11-15T01:36:12;12.77;;;6.37;;
4202;SDS011;2115;51.038;7.006;2022-11-15T01:38:39;14.67;;;7.00;;
4202;SDS011;2115;51.038;7.006;2022-11-15T01:41:04;16.80;;;7.63;;
4202;SDS011;2115;51.038;7.006;2022-11-15T01:43:31;24.20;;;7.47;;
4202;SDS011;2115;51.038;7.006;2022-11-15T01:46:00;15.90;;;7.90;;
4202;SDS011;2115;51.038;7.006;2022-11-15T01:48:29;19.53;;;7.63;;
4202;SDS011;2115;51.038;7.006;2022-11-15T01:50:57;11.80;;;6.60;;
4202;SDS011;2115;51.038;7.006;2022-11-15T01:53:24;16.50;;;6.90;;
4202;SDS011;2115;51.038;7.006;2022-11-15T01:55:50;10.77;;;6.80;;
4202;SDS011;2115;51.038;7.006;2022-11-15T01:58:16;19.13;;;7.50;;
4202;SDS011;2115;51.038;7.006;2022-11-15T02:00:42;14.57;;;7.67;;
4202;SDS011;2115;51.038;7.006;2022-11-15T02:03:07;22.80;;;8.60;;
4202;SDS011;2115;51.038;7.006;2022-11-15T02:05:32;16.13;;;7.17;;
4202;SDS011;2115;51.038;7.006;2022-11-15T02:07:59;15.93;;;6.87;;
4202;SDS011;2115;51.038;7.006;2022-11-15T02:10:25;23.40;;;7.70;;
4202;SDS011;2115;51.038;7.006;2022-11-15T02:12:50;13.03;;;7.33;;
4202;SDS011;2115;51.038;7.006;2022-11-15T02:15:16;19.03;;;8.13;;
4202;SDS011;2115;51.038;7.006;2022-11-15T02:26:36;10.80;;;6.83;;
4202;SDS011;2115;51.038;7.006;2022-11-15T02:32:17;14.83;;;7.00;;
4202;SDS011;2115;51.038;7.006;2022-11-15T02:34:50;17.20;;;7.50;;
4202;SDS011;2115;51.038;7.006;2022-11-15T02:37:24;15.13;;;6.83;;
4202;SDS011;2115;51.038;7.006;2022-11-15T02:42:35;13.67;;;7.37;;
4202;SDS011;2115;51.038;7.006;2022-11-15T02:45:24;13.50;;;6.50;;
4202;SDS011;2115;51.038;7.006;2022-11-15T02:47:54;14.00;;;6.10;;
4202;SDS011;2115;51.038;7.006;2022-11-15T02:50:20;22.93;;;8.80;;
4202;SDS011;2115;51.038;7.006;2022-11-15T02:52:48;13.90;;;6.80;;
4202;SDS011;2115;51.038;7.006;2022-11-15T02:55:27;13.70;;;7.10;;
4202;SDS011;2115;51.038;7.006;2022-11-15T03:00:52;14.70;;;6.67;;
4202;SDS011;2115;51.038;7.006;2022-11-15T03:11:14;13.67;;;6.90;;
4202;SDS011;2115;51.038;7.006;2022-11-15T03:16:10;12.10;;;7.07;;
4202;SDS011;2115;51.038;7.006;2022-11-15T03:18:41;14.57;;;6.00;;
4202;SDS011;2115;51.038;7.006;2022-11-15T03:21:10;20.23;;;7.57;;
4202;SDS011;2115;51.038;7.006;2022-11-15T03:23:37;11.63;;;6.93;;
4202;SDS011;2115;51.038;7.006;2022-11-15T03:26:04;19.00;;;7.20;;
4202;SDS011;2115;51.038;7.006;2022-11-15T03:28:39;16.50;;;6.20;;
4202;SDS011;2115;51.038;7.006;2022-11-15T03:31:08;15.87;;;6.30;;
4202;SDS011;2115;51.038;7.006;2022-11-15T03:33:53;17.57;;;7.07;;
4202;SDS011;2115;51.038;7.006;2022-11-15T03:36:21;11.90;;;6.10;;
4202;SDS011;2115;51.038;7.006;2022-11-15T03:38:47;12.73;;;5.73;;
4202;SDS011;2115;51.038;7.006;2022-11-15T03:41:17;14.80;;;6.83;;
4202;SDS011;2115;51.038;7.006;2022-11-15T03:44:10;14.20;;;5.97;;
4202;SDS011;2115;51.038;7.006;2022-11-15T03:49:40;10.70;;;6.03;;
4202;SDS011;2115;51.038;7.006;2022-11-15T03:52:09;15.60;;;6.40;;
4202;SDS011;2115;51.038;7.006;2022-11-15T03:54:35;12.50;;;6.07;;
4202;SDS011;2115;51.038;7.006;2022-11-15T03:57:01;12.03;;;5.93;;
4202;SDS011;2115;51.038;7.006;2022-11-15T03:59:26;10.90;;;6.27;;
4202;SDS011;2115;51.038;7.006;2022-11-15T04:01:51;9.33;;;5.40;;
4202;SDS011;2115;51.038;7.006;2022-11-15T04:04:17;9.90;;;5.63;;
4202;SDS011;2115;51.038;7.006;2022-11-15T04:06:42;11.63;;;6.20;;
4202;SDS011;2115;51.038;7.006;2022-11-15T04:09:08;14.93;;;6.60;;
4202;SDS011;2115;51.038;7.006;2022-11-15T04:11:33;14.20;;;5.77;;
4202;SDS011;2115;51.038;7.006;2022-11-15T04:13:58;10.80;;;6.00;;
4202;SDS011;2115;51.038;7.006;2022-11-15T04:16:25;11.53;;;5.90;;
4202;SDS011;2115;51.038;7.006;2022-11-15T04:18:51;13.03;;;6.17;;
4202;SDS011;2115;51.038;7.006;2022-11-15T04:21:36;15.30;;;5.93;;
4202;SDS011;2115;51.038;7.006;2022-11-15T04:24:20;14.80;;;6.30;;
4202;SDS011;2115;51.038;7.006;2022-11-15T04:26:45;10.00;;;6.27;;
4202;SDS011;2115;51.038;7.006;2022-11-15T04:29:11;11.67;;;6.00;;
4202;SDS011;2115;51.038;7.006;2022-11-15T04:31:55;14.00;;;7.00;;
4202;SDS011;2115;51.038;7.006;2022-11-15T04:34:20;10.40;;;6.23;;
4202;SDS011;2115;51.038;7.006;2022-11-15T04:36:46;11.10;;;5.90;;
4202;SDS011;2115;51.038;7.006;2022-11-15T04:39:30;14.07;;;7.17;;
4202;SDS011;2115;51.038;7.006;2022-11-15T04:41:55;11.50;;;5.93;;
4202;SDS011;2115;51.038;7.006;2022-11-15T04:44:20;11.10;;;5.73;;
4202;SDS011;2115;51.038;7.006;2022-11-15T04:46:46;13.80;;;7.13;;
4202;SDS011;2115;51.038;7.006;2022-11-15T04:49:11;12.60;;;5.40;;
4202;SDS011;2115;51.038;7.006;2022-11-15T04:51:36;16.73;;;6.90;;
4202;SDS011;2115;51.038;7.006;2022-11-15T04:54:02;10.63;;;6.30;;
4202;SDS011;2115;51.038;7.006;2022-11-15T04:56:27;13.10;;;6.50;;
4202;SDS011;2115;51.038;7.006;2022-11-15T04:58:52;36.03;;;17.30;;
4202;SDS011;2115;51.038;7.006;2022-11-15T05:01:18;16.93;;;10.93;;
4202;SDS011;2115;51.038;7.006;2022-11-15T05:03:43;22.10;;;9.97;;
4202;SDS011;2115;51.038;7.006;2022-11-15T05:06:28;14.63;;;6.67;;
4202;SDS011;2115;51.038;7.006;2022-11-15T05:08:54;19.13;;;7.30;;
4202;SDS011;2115;51.038;7.006;2022-11-15T05:11:19;10.10;;;6.50;;
4202;SDS011;2115;51.038;7.006;2022-11-15T05:13:45;11.53;;;5.90;;
4202;SDS011;2115;51.038;7.006;2022-11-15T05:16:11;10.67;;;7.30;;
4202;SDS011;2115;51.038;7.006;2022-11-15T05:18:36;20.23;;;10.50;;
4202;SDS011;2115;51.038;7.006;2022-11-15T05:21:09;22.67;;;12.93;;
4202;SDS011;2115;51.038;7.006;2022-11-15T05:23:35;19.90;;;12.83;;
4202;SDS011;2115;51.038;7.006;2022-11-15T05:26:01;22.67;;;12.43;;
4202;SDS011;2115;51.038;7.006;2022-11-15T05:28:28;11.97;;;7.93;;
4202;SDS011;2115;51.038;7.006;2022-11-15T05:30:59;17.53;;;8.20;;
4202;SDS011;2115;51.038;7.006;2022-11-15T05:33:33;10.23;;;6.03;;
4202;SDS011;2115;51.038;7.006;2022-11-15T05:38:55;14.17;;;6.00;;
4202;SDS011;2115;51.038;7.006;2022-11-15T05:41:22;8.80;;;5.50;;
4202;SDS011;2115;51.038;7.006;2022-11-15T05:43:55;7.40;;;5.27;;
4202;SDS011;2115;51.038;7.006;2022-11-15T05:46:21;20.50;;;5.63;;
4202;SDS011;2115;51.038;7.006;2022-11-15T05:48:47;11.43;;;4.87;;
4202;SDS011;2115;51.038;7.006;2022-11-15T05:51:14;11.40;;;5.60;;
4202;SDS011;2115;51.038;7.006;2022-11-15T05:53:40;5.83;;;4.43;;
4202;SDS011;2115;51.038;7.006;2022-11-15T05:56:06;9.07;;;4.97;;
4202;SDS011;2115;51.038;7.006;2022-11-15T05:58:34;15.43;;;5.60;;
4202;SDS011;2115;51.038;7.006;2022-11-15T06:01:00;11.90;;;5.80;;
4202;SDS011;2115;51.038;7.006;2022-11-15T06:03:26;7.13;;;4.40;;
4202;SDS011;2115;51.038;7.006;2022-11-15T06:05:51;9.20;;;4.80;;
4202;SDS011;2115;51.038;7.006;2022-11-15T06:08:17;8.67;;;4.50;;
4202;SDS011;2115;51.038;7.006;2022-11-15T06:10:42;13.63;;;5.20;;
4202;SDS011;2115;51.038;7.006;2022-11-15T06:13:07;9.37;;;4.30;;
4202;SDS011;2115;51.038;7.006;2022-11-15T06:15:33;17.23;;;5.50;;
4202;SDS011;2115;51.038;7.006;2022-11-15T06:18:01;13.37;;;5.13;;
4202;SDS011;2115;51.038;7.006;2022-11-15T06:20:27;13.10;;;5.63;;
4202;SDS011;2115;51.038;7.006;2022-11-15T06:22:57;9.90;;;5.40;;
4202;SDS011;2115;51.038;7.006;2022-11-15T06:25:24;7.10;;;3.80;;
4202;SDS011;2115;51.038;7.006;2022-11-15T06:27:53;6.23;;;4.33;;
4202;SDS011;2115;51.038;7.006;2022-11-15T06:30:19;8.60;;;4.67;;
4202;SDS011;2115;51.038;7.006;2022-11-15T06:32:45;8.80;;;4.17;;
4202;SDS011;2115;51.038;7.006;2022-11-15T06:35:10;9.20;;;4.67;;
4202;SDS011;2115;51.038;7.006;2022-11-15T06:37:36;11.03;;;5.33;;
4202;SDS011;2115;51.038;7.006;2022-11-15T06:40:01;6.87;;;3.80;;
4202;SDS011;2115;51.038;7.006;2022-11-15T06:42:27;10.53;;;5.10;;
4202;SDS011;2115;51.038;7.006;2022-11-15T06:44:52;12.67;;;5.30;;
4202;SDS011;2115;51.038;7.006;2022-11-15T06:47:17;9.43;;;4.37;;
4202;SDS011;2115;51.038;7.006;2022-11-15T06:49:43;11.43;;;4.47;;
4202;SDS011;2115;51.038;7.006;2022-11-15T06:52:08;8.23;;;4.10;;
4202;SDS011;2115;51.038;7.006;2022-11-15T06:54:33;7.93;;;4.30;;
4202;SDS011;2115;51.038;7.006;2022-11-15T06:56:59;7.57;;;3.80;;
4202;SDS011;2115;51.038;7.006;2022-11-15T06:59:24;5.10;;;3.30;;
4202;SDS011;2115;51.038;7.006;2022-11-15T07:01:49;9.50;;;4.60;;
4202;SDS011;2115;51.038;7.006;2022-11-15T07:04:15;8.23;;;4.00;;
4202;SDS011;2115;51.038;7.006;2022-11-15T07:06:40;15.43;;;5.33;;
4202;SDS011;2115;51.038;7.006;2022-11-15T07:09:05;6.77;;;4.00;;
4202;SDS011;2115;51.038;7.006;2022-11-15T07:11:32;7.40;;;3.77;;
4202;SDS011;2115;51.038;7.006;2022-11-15T07:13:59;11.00;;;4.83;;
4202;SDS011;2115;51.038;7.006;2022-11-15T07:16:24;9.00;;;4.90;;
4202;SDS011;2115;51.038;7.006;2022-11-15T07:21:15;10.20;;;5.37;;
4202;SDS011;2115;51.038;7.006;2022-11-15T07:23:40;9.87;;;5.03;;
4202;SDS011;2115;51.038;7.006;2022-11-15T07:26:06;11.57;;;5.23;;
4202;SDS011;2115;51.038;7.006;2022-11-15T07:28:32;7.53;;;4.33;;
4202;SDS011;2115;51.038;7.006;2022-11-15T07:31:01;16.00;;;5.53;;
4202;SDS011;2115;51.038;7.006;2022-11-15T07:33:27;11.00;;;4.17;;
4202;SDS011;2115;51.038;7.006;2022-11-15T07:35:53;8.43;;;3.90;;
4202;SDS011;2115;51.038;7.006;2022-11-15T07:38:18;9.80;;;4.40;;
4202;SDS011;2115;51.038;7.006;2022-11-15T07:40:44;15.10;;;5.53;;
4202;SDS011;2115;51.038;7.006;2022-11-15T07:43:10;12.23;;;4.83;;
4202;SDS011;2115;51.038;7.006;2022-11-15T07:45:39;6.90;;;4.33;;
4202;SDS011;2115;51.038;7.006;2022-11-15T07:48:08;9.63;;;4.20;;
4202;SDS011;2115;51.038;7.006;2022-11-15T07:50:33;6.17;;;3.77;;
4202;SDS011;2115;51.038;7.006;2022-11-15T07:52:59;8.30;;;3.43;;
4202;SDS011;2115;51.038;7.006;2022-11-15T07:55:25;6.97;;;3.37;;
4202;SDS011;2115;51.038;7.006;2022-11-15T07:57:53;7.07;;;3.13;;
4202;SDS011;2115;51.038;7.006;2022-11-15T08:00:27;11.07;;;4.10;;
4202;SDS011;2115;51.038;7.006;2022-11-15T08:03:01;7.50;;;2.73;;
4202;SDS011;2115;51.038;7.006;2022-11-15T08:05:30;9.57;;;4.07;;
4202;SDS011;2115;51.038;7.006;2022-11-15T08:07:55;6.23;;;2.90;;
4202;SDS011;2115;51.038;7.006;2022-11-15T08:10:21;10.80;;;3.60;;
4202;SDS011;2115;51.038;7.006;2022-11-15T08:12:46;12.30;;;4.17;;
4202;SDS011;2115;51.038;7.006;2022-11-15T08:15:12;6.43;;;3.33;;
4202;SDS011;2115;51.038;7.006;2022-11-15T08:17:37;9.83;;;3.53;;
4202;SDS011;2115;51.038;7.006;2022-11-15T08:20:02;10.63;;;3.60;;
4202;SDS011;2115;51.038;7.006;2022-11-15T08:22:28;12.00;;;4.23;;
4202;SDS011;2115;51.038;7.006;2022-11-15T08:24:53;19.70;;;5.63;;
4202;SDS011;2115;51.038;7.006;2022-11-15T08:27:19;8.90;;;3.60;;
4202;SDS011;2115;51.038;7.006;2022-11-15T08:29:44;10.87;;;3.77;;
4202;SDS011;2115;51.038;7.006;2022-11-15T08:32:10;12.80;;;4.10;;
4202;SDS011;2115;51.038;7.006;2022-11-15T08:34:37;11.60;;;3.70;;
4202;SDS011;2115;51.038;7.006;2022-11-15T08:37:03;6.57;;;2.50;;
4202;SDS011;2115;51.038;7.006;2022-11-15T08:39:29;10.87;;;3.67;;
4202;SDS011;2115;51.038;7.006;2022-11-15T08:41:54;21.20;;;3.57;;
4202;SDS011;2115;51.038;7.006;2022-11-15T08:44:19;7.10;;;2.90;;
4202;SDS011;2115;51.038;7.006;2022-11-15T08:46:45;12.97;;;3.27;;
4202;SDS011;2115;51.038;7.006;2022-11-15T08:49:11;10.30;;;3.37;;
4202;SDS011;2115;51.038;7.006;2022-11-15T08:51:36;5.27;;;2.87;;
4202;SDS011;2115;51.038;7.006;2022-11-15T08:54:01;11.10;;;2.83;;
4202;SDS011;2115;51.038;7.006;2022-11-15T08:56:27;11.67;;;3.80;;
4202;SDS011;2115;51.038;7.006;2022-11-15T08:58:52;9.93;;;3.67;;
4202;SDS011;2115;51.038;7.006;2022-11-15T09:01:18;6.90;;;2.83;;
4202;SDS011;2115;51.038;7.006;2022-11-15T09:03:44;8.83;;;3.30;;
4202;SDS011;2115;51.038;7.006;2022-11-15T09:06:10;5.90;;;3.20;;
4202;SDS011;2115;51.038;7.006;2022-11-15T09:08:35;8.10;;;3.03;;
4202;SDS011;2115;51.038;7.006;2022-11-15T09:11:04;12.27;;;3.57;;
4202;SDS011;2115;51.038;7.006;2022-11-15T09:13:31;11.07;;;2.93;;
4202;SDS011;2115;51.038;7.006;2022-11-15T09:15:57;18.83;;;5.00;;
4202;SDS011;2115;51.038;7.006;2022-11-15T09:18:24;4.60;;;2.10;;
4202;SDS011;2115;51.038;7.006;2022-11-15T09:20:49;6.70;;;2.50;;
4202;SDS011;2115;51.038;7.006;2022-11-15T09:23:14;8.27;;;2.60;;
4202;SDS011;2115;51.038;7.006;2022-11-15T09:25:40;8.10;;;2.47;;
4202;SDS011;2115;51.038;7.006;2022-11-15T09:28:06;11.60;;;3.30;;
4202;SDS011;2115;51.038;7.006;2022-11-15T09:30:32;8.83;;;2.87;;
4202;SDS011;2115;51.038;7.006;2022-11-15T09:32:57;12.93;;;2.67;;
4202;SDS011;2115;51.038;7.006;2022-11-15T09:35:23;8.20;;;2.77;;
4202;SDS011;2115;51.038;7.006;2022-11-15T09:37:48;12.73;;;2.33;;
4202;SDS011;2115;51.038;7.006;2022-11-15T09:40:14;12.27;;;3.10;;
4202;SDS011;2115;51.038;7.006;2022-11-15T09:45:31;5.17;;;1.90;;
4202;SDS011;2115;51.038;7.006;2022-11-15T09:48:05;9.60;;;2.40;;
4202;SDS011;2115;51.038;7.006;2022-11-15T09:50:49;11.37;;;2.83;;
4202;SDS011;2115;51.038;7.006;2022-11-15T09:53:25;20.83;;;5.07;;
4202;SDS011;2115;51.038;7.006;2022-11-15T09:55:57;6.93;;;2.27;;
4202;SDS011;2115;51.038;7.006;2022-11-15T09:58:46;17.43;;;3.43;;
4202;SDS011;2115;51.038;7.006;2022-11-15T10:01:18;11.43;;;3.00;;
4202;SDS011;2115;51.038;7.006;2022-11-15T10:03:47;11.20;;;2.13;;
4202;SDS011;2115;51.038;7.006;2022-11-15T10:06:23;6.33;;;1.60;;
4202;SDS011;2115;51.038;7.006;2022-11-15T10:11:27;13.70;;;3.03;;
4202;SDS011;2115;51.038;7.006;2022-11-15T10:13:56;8.00;;;1.90;;
4202;SDS011;2115;51.038;7.006;2022-11-15T10:16:31;14.87;;;3.30;;
4202;SDS011;2115;51.038;7.006;2022-11-15T10:24:14;8.20;;;2.33;;
4202;SDS011;2115;51.038;7.006;2022-11-15T10:26:46;5.00;;;1.60;;
4202;SDS011;2115;51.038;7.006;2022-11-15T10:29:17;9.00;;;2.23;;
4202;SDS011;2115;51.038;7.006;2022-11-15T10:31:43;10.20;;;2.23;;
4202;SDS011;2115;51.038;7.006;2022-11-15T10:34:21;7.93;;;2.40;;
4202;SDS011;2115;51.038;7.006;2022-11-15T10:36:57;9.93;;;2.37;;
4202;SDS011;2115;51.038;7.006;2022-11-15T10:39:24;6.53;;;1.77;;
4202;SDS011;2115;51.038;7.006;2022-11-15T10:41:49;12.60;;;3.13;;
4202;SDS011;2115;51.038;7.006;2022-11-15T10:44:25;5.03;;;1.70;;
4202;SDS011;2115;51.038;7.006;2022-11-15T10:49:32;8.13;;;1.87;;
4202;SDS011;2115;51.038;7.006;2022-11-15T10:52:02;6.67;;;1.97;;
4202;SDS011;2115;51.038;7.006;2022-11-15T10:54:42;6.77;;;1.53;;
4202;SDS011;2115;51.038;7.006;2022-11-15T10:57:20;8.50;;;2.07;;
4202;SDS011;2115;51.038;7.006;2022-11-15T10:59:51;21.40;;;3.90;;
4202;SDS011;2115;51.038;7.006;2022-11-15T11:05:30;6.63;;;1.23;;
4202;SDS011;2115;51.038;7.006;2022-11-15T11:08:02;9.03;;;2.20;;
4202;SDS011;2115;51.038;7.006;2022-11-15T11:10:30;3.77;;;1.17;;
4202;SDS011;2115;51.038;7.006;2022-11-15T11:13:05;6.20;;;1.50;;
4202;SDS011;2115;51.038;7.006;2022-11-15T11:15:38;7.77;;;1.37;;
4202;SDS011;2115;51.038;7.006;2022-11-15T11:18:07;19.47;;;4.70;;
4202;SDS011;2115;51.038;7.006;2022-11-15T11:20:41;7.30;;;1.60;;
4202;SDS011;2115;51.038;7.006;2022-11-15T11:29:08;6.60;;;1.23;;
4202;SDS011;2115;51.038;7.006;2022-11-15T11:34:39;4.00;;;1.20;;
4202;SDS011;2115;51.038;7.006;2022-11-15T11:37:12;21.47;;;4.00;;
4202;SDS011;2115;51.038;7.006;2022-11-15T11:48:38;12.30;;;2.10;;
4202;SDS011;2115;51.038;7.006;2022-11-15T11:51:22;7.70;;;1.43;;
4202;SDS011;2115;51.038;7.006;2022-11-15T11:54:32;7.10;;;1.33;;
4202;SDS011;2115;51.038;7.006;2022-11-15T11:56:52;19.33;;;3.00;;
4202;SDS011;2115;51.038;7.006;2022-11-15T11:59:29;9.30;;;1.67;;
4202;SDS011;2115;51.038;7.006;2022-11-15T12:02:15;14.23;;;2.50;;
4202;SDS011;2115;51.038;7.006;2022-11-15T12:04:45;8.43;;;2.07;;
4202;SDS011;2115;51.038;7.006;2022-11-15T12:07:23;12.33;;;2.33;;
4202;SDS011;2115;51.038;7.006;2022-11-15T12:12:23;5.47;;;1.13;;
4202;SDS011;2115;51.038;7.006;2022-11-15T12:17:33;11.63;;;1.67;;
4202;SDS011;2115;51.038;7.006;2022-11-15T12:19:59;11.90;;;2.17;;
4202;SDS011;2115;51.038;7.006;2022-11-15T12:22:52;19.80;;;3.10;;
4202;SDS011;2115;51.038;7.006;2022-11-15T12:28:26;13.73;;;2.43;;
4202;SDS011;2115;51.038;7.006;2022-11-15T12:33:42;15.20;;;2.20;;
4202;SDS011;2115;51.038;7.006;2022-11-15T12:39:07;13.50;;;2.50;;
4202;SDS011;2115;51.038;7.006;2022-11-15T12:41:41;6.83;;;1.33;;
4202;SDS011;2115;51.038;7.006;2022-11-15T13:02:36;9.77;;;1.20;;
4202;SDS011;2115;51.038;7.006;2022-11-15T13:10:51;15.90;;;2.07;;
4202;SDS011;2115;51.038;7.006;2022-11-15T13:12:53;17.67;;;3.20;;
4202;SDS011;2115;51.038;7.006;2022-11-15T13:17:55;6.73;;;1.20;;
4202;SDS011;2115;51.038;7.006;2022-11-15T13:20:38;4.53;;;1.30;;
4202;SDS011;2115;51.038;7.006;2022-11-15T13:28:22;21.17;;;3.20;;
4202;SDS011;2115;51.038;7.006;2022-11-15T13:30:53;4.57;;;1.50;;
4202;SDS011;2115;51.038;7.006;2022-11-15T13:33:25;16.13;;;3.10;;
4202;SDS011;2115;51.038;7.006;2022-11-15T13:35:56;5.30;;;1.47;;
4202;SDS011;2115;51.038;7.006;2022-11-15T13:40:49;7.23;;;1.37;;
4202;SDS011;2115;51.038;7.006;2022-11-15T13:46:03;6.73;;;2.10;;
4202;SDS011;2115;51.038;7.006;2022-11-15T13:48:29;8.40;;;2.17;;
4202;SDS011;2115;51.038;7.006;2022-11-15T13:50:55;8.23;;;2.43;;
4202;SDS011;2115;51.038;7.006;2022-11-15T13:53:22;13.00;;;2.80;;
4202;SDS011;2115;51.038;7.006;2022-11-15T13:55:49;3.40;;;2.17;;
4202;SDS011;2115;51.038;7.006;2022-11-15T13:58:16;4.30;;;1.63;;
4202;SDS011;2115;51.038;7.006;2022-11-15T14:00:42;3.17;;;1.53;;
4202;SDS011;2115;51.038;7.006;2022-11-15T14:03:18;7.20;;;2.40;;
4202;SDS011;2115;51.038;7.006;2022-11-15T14:08:58;10.77;;;3.00;;
4202;SDS011;2115;51.038;7.006;2022-11-15T14:11:36;17.27;;;4.17;;
4202;SDS011;2115;51.038;7.006;2022-11-15T14:14:05;4.43;;;2.20;;
4202;SDS011;2115;51.038;7.006;2022-11-15T14:16:42;10.90;;;3.27;;
4202;SDS011;2115;51.038;7.006;2022-11-15T14:19:10;14.77;;;2.37;;
4202;SDS011;2115;51.038;7.006;2022-11-15T14:21:37;16.80;;;3.20;;
4202;SDS011;2115;51.038;7.006;2022-11-15T14:26:40;13.63;;;3.00;;
4202;SDS011;2115;51.038;7.006;2022-11-15T14:29:23;10.77;;;2.40;;
4202;SDS011;2115;51.038;7.006;2022-11-15T14:31:48;16.73;;;4.00;;
4202;SDS011;2115;51.038;7.006;2022-11-15T14:34:14;5.30;;;2.07;;
4202;SDS011;2115;51.038;7.006;2022-11-15T14:36:39;14.53;;;3.80;;
4202;SDS011;2115;51.038;7.006;2022-11-15T14:39:04;13.43;;;3.63;;
4202;SDS011;2115;51.038;7.006;2022-11-15T14:41:34;6.97;;;2.20;;
4202;SDS011;2115;51.038;7.006;2022-11-15T14:44:02;7.80;;;2.70;;
4202;SDS011;2115;51.038;7.006;2022-11-15T14:46:29;7.33;;;2.00;;
4202;SDS011;2115;51.038;7.006;2022-11-15T14:48:54;23.63;;;3.20;;
4202;SDS011;2115;51.038;7.006;2022-11-15T14:51:19;10.50;;;2.77;;
4202;SDS011;2115;51.038;7.006;2022-11-15T14:53:45;8.40;;;2.70;;
4202;SDS011;2115;51.038;7.006;2022-11-15T14:56:11;8.73;;;2.57;;
4202;SDS011;2115;51.038;7.006;2022-11-15T14:58:37;4.47;;;2.07;;
4202;SDS011;2115;51.038;7.006;2022-11-15T15:01:09;10.70;;;2.53;;
4202;SDS011;2115;51.038;7.006;2022-11-15T15:03:37;6.83;;;2.00;;
4202;SDS011;2115;51.038;7.006;2022-11-15T15:06:03;14.60;;;3.37;;
4202;SDS011;2115;51.038;7.006;2022-11-15T15:08:28;10.00;;;2.43;;
4202;SDS011;2115;51.038;7.006;2022-11-15T15:10:53;5.67;;;2.20;;
4202;SDS011;2115;51.038;7.006;2022-11-15T15:13:23;6.13;;;2.30;;
4202;SDS011;2115;51.038;7.006;2022-11-15T15:15:49;7.80;;;2.63;;
4202;SDS011;2115;51.038;7.006;2022-11-15T15:18:15;13.60;;;2.33;;
4202;SDS011;2115;51.038;7.006;2022-11-15T15:20:41;7.50;;;2.00;;
4202;SDS011;2115;51.038;7.006;2022-11-15T15:23:16;12.97;;;3.47;;
4202;SDS011;2115;51.038;7.006;2022-11-15T15:25:43;7.03;;;2.00;;
4202;SDS011;2115;51.038;7.006;2022-11-15T15:28:10;17.77;;;4.83;;
4202;SDS011;2115;51.038;7.006;2022-11-15T15:30:36;13.53;;;2.40;;
4202;SDS011;2115;51.038;7.006;2022-11-15T15:33:01;20.90;;;4.80;;
4202;SDS011;2115;51.038;7.006;2022-11-15T15:35:29;14.50;;;4.00;;
4202;SDS011;2115;51.038;7.006;2022-11-15T15:37:56;7.97;;;2.20;;
4202;SDS011;2115;51.038;7.006;2022-11-15T15:40:22;26.23;;;5.40;;
4202;SDS011;2115;51.038;7.006;2022-11-15T15:42:49;8.67;;;2.70;;
4202;SDS011;2115;51.038;7.006;2022-11-15T15:45:15;14.07;;;3.37;;
4202;SDS011;2115;51.038;7.006;2022-11-15T15:47:42;6.40;;;2.23;;
4202;SDS011;2115;51.038;7.006;2022-11-15T15:52:39;9.30;;;3.40;;
4202;SDS011;2115;51.038;7.006;2022-11-15T15:55:04;6.40;;;2.17;;
4202;SDS011;2115;51.038;7.006;2022-11-15T15:57:30;22.63;;;4.10;;
4202;SDS011;2115;51.038;7.006;2022-11-15T15:59:55;16.07;;;2.53;;
4202;SDS011;2115;51.038;7.006;2022-11-15T16:02:21;10.73;;;2.90;;
4202;SDS011;2115;51.038;7.006;2022-11-15T16:04:46;9.37;;;2.80;;
4202;SDS011;2115;51.038;7.006;2022-11-15T16:07:15;13.83;;;2.73;;
4202;SDS011;2115;51.038;7.006;2022-11-15T16:09:43;18.50;;;3.87;;
4202;SDS011;2115;51.038;7.006;2022-11-15T16:12:31;6.17;;;2.10;;
4202;SDS011;2115;51.038;7.006;2022-11-15T16:14:58;6.70;;;1.97;;
4202;SDS011;2115;51.038;7.006;2022-11-15T16:17:25;14.43;;;2.60;;
4202;SDS011;2115;51.038;7.006;2022-11-15T16:19:51;8.70;;;2.73;;
4202;SDS011;2115;51.038;7.006;2022-11-15T16:22:17;11.63;;;3.07;;
4202;SDS011;2115;51.038;7.006;2022-11-15T16:24:42;15.20;;;3.37;;
4202;SDS011;2115;51.038;7.006;2022-11-15T16:27:15;14.03;;;2.93;;
4202;SDS011;2115;51.038;7.006;2022-11-15T16:29:41;22.60;;;4.20;;
4202;SDS011;2115;51.038;7.006;2022-11-15T16:32:06;6.43;;;2.30;;
4202;SDS011;2115;51.038;7.006;2022-11-15T16:34:32;16.67;;;3.20;;
4202;SDS011;2115;51.038;7.006;2022-11-15T16:36:57;11.27;;;2.70;;
4202;SDS011;2115;51.038;7.006;2022-11-15T16:39:23;7.43;;;2.60;;
4202;SDS011;2115;51.038;7.006;2022-11-15T16:41:48;18.53;;;3.30;;
4202;SDS011;2115;51.038;7.006;2022-11-15T16:44:13;10.30;;;1.90;;
4202;SDS011;2115;51.038;7.006;2022-11-15T16:46:42;8.50;;;2.13;;
4202;SDS011;2115;51.038;7.006;2022-11-15T16:49:14;8.50;;;2.57;;
4202;SDS011;2115;51.038;7.006;2022-11-15T16:51:42;11.60;;;3.13;;
4202;SDS011;2115;51.038;7.006;2022-11-15T16:54:10;20.50;;;3.63;;
4202;SDS011;2115;51.038;7.006;2022-11-15T16:56:36;8.10;;;2.30;;
4202;SDS011;2115;51.038;7.006;2022-11-15T16:59:01;15.53;;;3.27;;
4202;SDS011;2115;51.038;7.006;2022-11-15T17:01:30;12.63;;;3.40;;
4202;SDS011;2115;51.038;7.006;2022-11-15T17:03:57;13.50;;;4.00;;
4202;SDS011;2115;51.038;7.006;2022-11-15T17:06:23;10.60;;;2.90;;
4202;SDS011;2115;51.038;7.006;2022-11-15T17:08:49;22.60;;;4.07;;
4202;SDS011;2115;51.038;7.006;2022-11-15T17:11:17;10.93;;;2.40;;
4202;SDS011;2115;51.038;7.006;2022-11-15T17:13:44;6.20;;;2.10;;
4202;SDS011;2115;51.038;7.006;2022-11-15T17:16:10;10.30;;;2.33;;
4202;SDS011;2115;51.038;7.006;2022-11-15T17:18:37;7.60;;;2.40;;
4202;SDS011;2115;51.038;7.006;2022-11-15T17:21:08;8.43;;;2.30;;